Twin Rock, Colorado
Current Conditions -  °F | °C
As of 7:56 PM on Monday 20 Oct 2014 (Local Time) from KCWN Reporting Station
Clear Clear  
Wind Chill: 58°   Ceiling: Unl
Heat Index: 58°   Visibility: 10mi
Dew Point: 35°   Wind: 16mph
Humidity: 42%   Direction: 200°SSW
Pressure: 30.21"   Gusts: 23mph
Location:  38.8466°N, 105.301°W
Report Text: KCWN 210156Z AUTO 20014G20KT 10SM CLR 14/01 A3021 RMK AO2 SLP177 T01430014
Loading
Personal Weather Stations






























Interactive Weather Map
Tropical Storm Tracking
New forecast layout! Learn more

10-Day Weather Forecast

Advertisements
Track Severe Weather on mobile